Time,TemperatureF,DewpointF,PressureIn,WindDirection,WindDirectionDegrees,WindSpeedMPH,WindSpeedGustMPH,Humidity,HourlyPrecipIn,Conditions,Clouds,dailyrainin,SoftwareType,DateUTC
2013-05-24 00:01:00,48.0,36.0,-100.00,WSW,244,6.0,11.0,63,0.00,,,0.00,,2013-05-24 07:01:00,
2013-05-24 00:11:00,48.0,36.0,-100.00,WSW,244,6.0,11.0,63,0.00,,,0.00,,2013-05-24 07:11:00,
2013-05-24 00:32:00,47.0,39.0,-100.00,SW,220,7.0,9.0,75,0.00,,,0.00,,2013-05-24 07:32:00,
2013-05-24 00:42:00,47.0,39.0,-100.00,SW,220,7.0,9.0,75,0.00,,,0.00,,2013-05-24 07:42:00,
2013-05-24 00:52:00,47.0,39.0,-100.00,SW,220,7.0,9.0,75,0.00,,,0.00,,2013-05-24 07:52:00,
2013-05-24 01:02:00,47.0,39.0,-100.00,SW,220,7.0,9.0,75,0.00,,,0.00,,2013-05-24 08:02:00,
2013-05-24 01:11:00,47.0,39.0,-100.00,SW,220,7.0,9.0,75,0.00,,,0.00,,2013-05-24 08:11:00,
2013-05-24 01:33:00,46.0,36.0,-100.00,SW,232,7.0,10.0,67,0.00,,,0.00,,2013-05-24 08:33:00,
2013-05-24 01:42:00,46.0,36.0,-100.00,SW,232,7.0,10.0,67,0.00,,,0.00,,2013-05-24 08:42:00,
2013-05-24 01:52:00,46.0,36.0,-100.00,SW,232,7.0,10.0,67,0.00,,,0.00,,2013-05-24 08:52:00,
2013-05-24 02:01:00,46.0,36.0,-100.00,SW,232,7.0,10.0,67,0.00,,,0.00,,2013-05-24 09:01:00,
2013-05-24 02:11:00,46.0,36.0,-100.00,SW,232,7.0,10.0,67,0.00,,,0.00,,2013-05-24 09:11:00,
2013-05-24 02:33:00,49.0,32.0,-100.00,SSE,159,8.0,12.0,51,0.00,,,0.00,,2013-05-24 09:33:00,
2013-05-24 03:12:00,49.0,32.0,-100.00,SSE,159,8.0,12.0,51,0.00,,,0.00,,2013-05-24 10:12:00,
2013-05-24 03:33:00,47.0,32.0,-100.00,SW,227,4.0,10.0,56,0.00,,,0.00,,2013-05-24 10:33:00,
2013-05-24 03:42:00,47.0,32.0,-100.00,SW,227,4.0,10.0,56,0.00,,,0.00,,2013-05-24 10:42:00,
2013-05-24 03:52:00,47.0,32.0,-100.00,SW,227,4.0,10.0,56,0.00,,,0.00,,2013-05-24 10:52:00,
2013-05-24 04:12:00,47.0,32.0,-100.00,SW,227,4.0,10.0,56,0.00,,,0.00,,2013-05-24 11:12:00,
2013-05-24 04:32:00,47.0,35.0,-100.00,SW,225,5.0,9.0,64,0.00,,,0.00,,2013-05-24 11:32:00,
2013-05-24 04:42:00,47.0,35.0,-100.00,SW,225,5.0,9.0,64,0.00,,,0.00,,2013-05-24 11:42:00,
2013-05-24 04:52:00,47.0,35.0,-100.00,SW,225,5.0,9.0,64,0.00,,,0.00,,2013-05-24 11:52:00,
2013-05-24 05:01:00,47.0,35.0,-100.00,SW,225,5.0,9.0,64,0.00,,,0.00,,2013-05-24 12:01:00,
2013-05-24 05:11:00,47.0,35.0,-100.00,SW,225,5.0,9.0,64,0.00,,,0.00,,2013-05-24 12:11:00,
2013-05-24 05:33:00,49.0,34.0,-100.00,SSW,193,4.0,7.0,56,0.00,,,0.00,,2013-05-24 12:33:00,
2013-05-24 05:42:00,49.0,34.0,-100.00,SSW,193,4.0,7.0,56,0.00,,,0.00,,2013-05-24 12:42:00,
2013-05-24 05:52:00,49.0,34.0,-100.00,SSW,193,4.0,7.0,56,0.00,,,0.00,,2013-05-24 12:52:00,
2013-05-24 06:02:00,49.0,34.0,-100.00,SSW,193,4.0,7.0,56,0.00,,,0.00,,2013-05-24 13:02:00,
2013-05-24 06:11:00,49.0,34.0,-100.00,SSW,193,4.0,7.0,56,0.00,,,0.00,,2013-05-24 13:11:00,
2013-05-24 06:32:00,48.0,33.0,-100.00,SSW,205,4.0,10.0,55,0.00,,,0.00,,2013-05-24 13:32:00,
2013-05-24 06:42:00,48.0,33.0,-100.00,SSW,205,4.0,10.0,55,0.00,,,0.00,,2013-05-24 13:42:00,
2013-05-24 06:52:00,48.0,33.0,-100.00,SSW,205,4.0,10.0,55,0.00,,,0.00,,2013-05-24 13:52:00,
2013-05-24 07:01:00,48.0,33.0,-100.00,SSW,205,4.0,10.0,55,0.00,,,0.00,,2013-05-24 14:01:00,
2013-05-24 07:11:00,48.0,33.0,-100.00,SSW,205,4.0,10.0,55,0.00,,,0.00,,2013-05-24 14:11:00,
2013-05-24 07:32:00,49.0,32.0,-100.00,SSW,197,4.0,9.0,52,0.00,,,0.00,,2013-05-24 14:32:00,
2013-05-24 07:42:00,49.0,32.0,-100.00,SSW,197,4.0,9.0,52,0.00,,,0.00,,2013-05-24 14:42:00,
2013-05-24 07:52:00,49.0,32.0,-100.00,SSW,197,4.0,9.0,52,0.00,,,0.00,,2013-05-24 14:52:00,
2013-05-24 08:02:00,49.0,32.0,-100.00,SSW,197,4.0,9.0,52,0.00,,,0.00,,2013-05-24 15:02:00,
2013-05-24 08:11:00,49.0,32.0,-100.00,SSW,197,4.0,9.0,52,0.00,,,0.00,,2013-05-24 15:11:00,
2013-05-24 08:33:00,49.0,41.0,-100.00,WSW,240,4.0,9.0,73,0.00,,,0.00,,2013-05-24 15:33:00,
2013-05-24 08:43:00,49.0,41.0,-100.00,WSW,240,4.0,9.0,73,0.00,,,0.00,,2013-05-24 15:43:00,
2013-05-24 08:52:00,49.0,41.0,-100.00,WSW,240,4.0,9.0,73,0.00,,,0.00,,2013-05-24 15:52:00,
2013-05-24 09:03:00,49.0,41.0,-100.00,WSW,240,4.0,9.0,73,0.00,,,0.00,,2013-05-24 16:03:00,
2013-05-24 09:12:00,49.0,41.0,-100.00,WSW,240,4.0,9.0,73,0.00,,,0.00,,2013-05-24 16:12:00,
2013-05-24 09:33:00,53.0,42.0,-100.00,West,261,7.0,10.0,67,0.00,,,0.00,,2013-05-24 16:33:00,
2013-05-24 09:42:00,53.0,42.0,-100.00,West,261,7.0,10.0,67,0.00,,,0.00,,2013-05-24 16:42:00,
2013-05-24 09:52:00,53.0,42.0,-100.00,West,261,7.0,10.0,67,0.00,,,0.00,,2013-05-24 16:52:00,
2013-05-24 10:01:00,53.0,42.0,-100.00,West,261,7.0,10.0,67,0.00,,,0.00,,2013-05-24 17:01:00,
2013-05-24 10:12:00,53.0,42.0,-100.00,West,261,7.0,10.0,67,0.00,,,0.00,,2013-05-24 17:12:00,
2013-05-24 10:32:00,56.0,42.0,-100.00,West,271,12.0,15.0,59,0.00,,,0.00,,2013-05-24 17:32:00,
2013-05-24 10:42:00,56.0,42.0,-100.00,West,271,12.0,15.0,59,0.00,,,0.00,,2013-05-24 17:42:00,
2013-05-24 10:52:00,56.0,42.0,-100.00,West,271,12.0,15.0,59,0.00,,,0.00,,2013-05-24 17:52:00,
2013-05-24 11:01:00,56.0,42.0,-100.00,West,271,12.0,15.0,59,0.00,,,0.00,,2013-05-24 18:01:00,
2013-05-24 11:11:00,56.0,42.0,-100.00,West,271,12.0,15.0,59,0.00,,,0.00,,2013-05-24 18:11:00,
2013-05-24 11:32:00,61.0,42.0,-100.00,West,259,8.0,19.0,50,0.00,,,0.00,,2013-05-24 18:32:00,
2013-05-24 11:42:00,61.0,42.0,-100.00,West,259,8.0,19.0,50,0.00,,,0.00,,2013-05-24 18:42:00,
2013-05-24 11:52:00,61.0,42.0,-100.00,West,259,8.0,19.0,50,0.00,,,0.00,,2013-05-24 18:52:00,
2013-05-24 12:01:00,61.0,42.0,-100.00,West,259,8.0,19.0,50,0.00,,,0.00,,2013-05-24 19:01:00,
2013-05-24 12:11:00,61.0,42.0,-100.00,West,259,8.0,19.0,50,0.00,,,0.00,,2013-05-24 19:11:00,
2013-05-24 12:32:00,63.0,36.0,-100.00,WSW,249,19.0,25.0,37,0.00,,,0.00,,2013-05-24 19:32:00,
2013-05-24 12:42:00,63.0,36.0,-100.00,WSW,249,19.0,25.0,37,0.00,,,0.00,,2013-05-24 19:42:00,
2013-05-24 12:52:00,63.0,36.0,-100.00,WSW,249,19.0,25.0,37,0.00,,,0.00,,2013-05-24 19:52:00,
2013-05-24 13:02:00,63.0,36.0,-100.00,WSW,249,19.0,25.0,37,0.00,,,0.00,,2013-05-24 20:02:00,
2013-05-24 13:11:00,63.0,36.0,-100.00,WSW,249,19.0,25.0,37,0.00,,,0.00,,2013-05-24 20:11:00,
2013-05-24 13:32:00,63.0,41.0,-100.00,WSW,240,19.0,34.0,44,0.00,,,0.00,,2013-05-24 20:32:00,
2013-05-24 13:42:00,63.0,41.0,-100.00,WSW,240,19.0,34.0,44,0.00,,,0.00,,2013-05-24 20:42:00,
2013-05-24 13:52:00,63.0,41.0,-100.00,WSW,240,19.0,34.0,44,0.00,,,0.00,,2013-05-24 20:52:00,
2013-05-24 14:01:00,63.0,41.0,-100.00,WSW,240,19.0,34.0,44,0.00,,,0.00,,2013-05-24 21:01:00,
2013-05-24 14:11:00,63.0,41.0,-100.00,WSW,240,19.0,34.0,44,0.00,,,0.00,,2013-05-24 21:11:00,
2013-05-24 14:33:00,63.0,42.0,-100.00,WSW,242,20.0,29.0,46,0.00,,,0.00,,2013-05-24 21:33:00,
2013-05-24 14:43:00,63.0,42.0,-100.00,WSW,242,20.0,29.0,46,0.00,,,0.00,,2013-05-24 21:43:00,
2013-05-24 14:53:00,63.0,42.0,-100.00,WSW,242,20.0,29.0,46,0.00,,,0.00,,2013-05-24 21:53:00,
2013-05-24 15:02:00,63.0,42.0,-100.00,WSW,242,20.0,29.0,46,0.00,,,0.00,,2013-05-24 22:02:00,
2013-05-24 15:12:00,63.0,42.0,-100.00,WSW,242,20.0,29.0,46,0.00,,,0.00,,2013-05-24 22:12:00,
2013-05-24 15:33:00,62.0,41.0,-100.00,WSW,237,18.0,28.0,46,0.00,,,0.00,,2013-05-24 22:33:00,
2013-05-24 15:42:00,62.0,41.0,-100.00,WSW,237,18.0,28.0,46,0.00,,,0.00,,2013-05-24 22:42:00,
2013-05-24 15:52:00,62.0,41.0,-100.00,WSW,237,18.0,28.0,46,0.00,,,0.00,,2013-05-24 22:52:00,
2013-05-24 16:02:00,62.0,41.0,-100.00,WSW,237,18.0,28.0,46,0.00,,,0.00,,2013-05-24 23:02:00,
2013-05-24 16:11:00,62.0,41.0,-100.00,WSW,237,18.0,28.0,46,0.00,,,0.00,,2013-05-24 23:11:00,
2013-05-24 16:32:00,61.0,42.0,-100.00,WSW,249,22.0,30.0,49,0.00,,,0.00,,2013-05-24 23:32:00,
2013-05-24 16:42:00,61.0,42.0,-100.00,WSW,249,22.0,30.0,49,0.00,,,0.00,,2013-05-24 23:42:00,
2013-05-24 16:52:00,61.0,42.0,-100.00,WSW,249,22.0,30.0,49,0.00,,,0.00,,2013-05-24 23:52:00,
2013-05-24 17:01:00,61.0,42.0,-100.00,WSW,249,22.0,30.0,49,0.00,,,0.00,,2013-05-25 00:01:00,
2013-05-24 17:11:00,61.0,42.0,-100.00,WSW,249,22.0,30.0,49,0.00,,,0.00,,2013-05-25 00:11:00,
2013-05-24 17:32:00,57.0,40.0,-100.00,WSW,249,24.0,35.0,52,0.00,,,0.00,,2013-05-25 00:32:00,
2013-05-24 17:42:00,57.0,40.0,-100.00,WSW,249,24.0,35.0,52,0.00,,,0.00,,2013-05-25 00:42:00,
2013-05-24 17:52:00,57.0,40.0,-100.00,WSW,249,24.0,35.0,52,0.00,,,0.00,,2013-05-25 00:52:00,
2013-05-24 18:01:00,57.0,40.0,-100.00,WSW,249,24.0,35.0,52,0.00,,,0.00,,2013-05-25 01:01:00,
2013-05-24 18:11:00,57.0,40.0,-100.00,WSW,249,24.0,35.0,52,0.00,,,0.00,,2013-05-25 01:11:00,
2013-05-24 18:32:00,56.0,40.0,-100.00,WSW,237,18.0,34.0,54,0.00,,,0.00,,2013-05-25 01:32:00,
2013-05-24 18:42:00,56.0,40.0,-100.00,WSW,237,18.0,34.0,54,0.00,,,0.00,,2013-05-25 01:42:00,
2013-05-24 18:52:00,56.0,40.0,-100.00,WSW,237,18.0,34.0,54,0.00,,,0.00,,2013-05-25 01:52:00,
2013-05-24 19:01:00,56.0,40.0,-100.00,WSW,237,18.0,34.0,54,0.00,,,0.00,,2013-05-25 02:01:00,
2013-05-24 19:11:00,56.0,40.0,-100.00,WSW,237,18.0,34.0,54,0.00,,,0.00,,2013-05-25 02:11:00,
2013-05-24 19:32:00,53.0,40.0,-100.00,WSW,240,19.0,29.0,61,0.00,,,0.00,,2013-05-25 02:32:00,
2013-05-24 19:42:00,53.0,40.0,-100.00,WSW,240,19.0,29.0,61,0.00,,,0.00,,2013-05-25 02:42:00,
2013-05-24 19:52:00,53.0,40.0,-100.00,WSW,240,19.0,29.0,61,0.00,,,0.00,,2013-05-25 02:52:00,
2013-05-24 20:01:00,53.0,40.0,-100.00,WSW,240,19.0,29.0,61,0.00,,,0.00,,2013-05-25 03:01:00,
2013-05-24 20:11:00,53.0,40.0,-100.00,WSW,240,19.0,29.0,61,0.00,,,0.00,,2013-05-25 03:11:00,
2013-05-24 20:33:00,50.0,39.0,-100.00,WSW,240,16.0,26.0,65,0.00,,,0.00,,2013-05-25 03:33:00,
2013-05-24 20:43:00,50.0,39.0,-100.00,WSW,240,16.0,26.0,65,0.00,,,0.00,,2013-05-25 03:43:00,
2013-05-24 20:53:00,50.0,39.0,-100.00,WSW,240,16.0,26.0,65,0.00,,,0.00,,2013-05-25 03:53:00,
2013-05-24 21:02:00,50.0,39.0,-100.00,WSW,240,16.0,26.0,65,0.00,,,0.00,,2013-05-25 04:02:00,
2013-05-24 21:12:00,50.0,39.0,-100.00,WSW,240,16.0,26.0,65,0.00,,,0.00,,2013-05-25 04:12:00,
2013-05-24 21:43:00,48.0,39.0,-100.00,SW,229,19.0,23.0,72,0.00,,,0.00,,2013-05-25 04:43:00,
2013-05-24 21:52:00,48.0,39.0,-100.00,SW,229,19.0,23.0,72,0.00,,,0.00,,2013-05-25 04:52:00,
2013-05-24 22:02:00,48.0,39.0,-100.00,SW,229,19.0,23.0,72,0.00,,,0.00,,2013-05-25 05:02:00,
2013-05-24 22:12:00,48.0,39.0,-100.00,SW,229,19.0,23.0,72,0.00,,,0.00,,2013-05-25 05:12:00,
2013-05-24 22:32:00,48.0,38.0,-100.00,SW,224,15.0,23.0,67,0.00,,,0.00,,2013-05-25 05:32:00,
2013-05-24 22:43:00,48.0,38.0,-100.00,SW,224,15.0,23.0,67,0.00,,,0.00,,2013-05-25 05:43:00,
2013-05-24 22:52:00,48.0,38.0,-100.00,SW,224,15.0,23.0,67,0.00,,,0.00,,2013-05-25 05:52:00,
2013-05-24 23:01:00,48.0,38.0,-100.00,SW,224,15.0,23.0,67,0.00,,,0.00,,2013-05-25 06:01:00,
2013-05-24 23:12:00,48.0,38.0,-100.00,SW,224,15.0,23.0,67,0.00,,,0.00,,2013-05-25 06:12:00,
2013-05-24 23:42:00,47.0,37.0,-100.00,SSW,207,16.0,23.0,69,0.00,,,0.00,,2013-05-25 06:42:00,
2013-05-24 23:52:00,47.0,37.0,-100.00,SSW,207,16.0,23.0,69,0.00,,,0.00,,2013-05-25 06:52:00,